sensor_id;sensor_type;location;lat;lon;timestamp;P1;durP1;ratioP1;P2;durP2;ratioP2
26780;SDS011;14366;49.184;8.054;2023-07-29T00:03:50;1.80;;;1.70;;
26780;SDS011;14366;49.184;8.054;2023-07-29T00:14:30;1.77;;;1.60;;
26780;SDS011;14366;49.184;8.054;2023-07-29T00:25:10;4.30;;;1.80;;
26780;SDS011;14366;49.184;8.054;2023-07-29T00:30:46;2.85;;;1.80;;
26780;SDS011;14366;49.184;8.054;2023-07-29T00:36:21;6.00;;;2.10;;
26780;SDS011;14366;49.184;8.054;2023-07-29T00:41:41;2.43;;;1.60;;
26780;SDS011;14366;49.184;8.054;2023-07-29T00:47:17;2.73;;;1.90;;
26780;SDS011;14366;49.184;8.054;2023-07-29T00:52:49;7.20;;;2.50;;
26780;SDS011;14366;49.184;8.054;2023-07-29T00:58:24;2.47;;;2.20;;
26780;SDS011;14366;49.184;8.054;2023-07-29T01:03:45;2.50;;;2.30;;
26780;SDS011;14366;49.184;8.054;2023-07-29T01:09:22;5.47;;;2.30;;
26780;SDS011;14366;49.184;8.054;2023-07-29T01:14:55;2.87;;;2.40;;
26780;SDS011;14366;49.184;8.054;2023-07-29T01:20:33;3.60;;;2.60;;
26780;SDS011;14366;49.184;8.054;2023-07-29T01:26:08;2.83;;;2.23;;
26780;SDS011;14366;49.184;8.054;2023-07-29T01:31:43;3.15;;;2.10;;
26780;SDS011;14366;49.184;8.054;2023-07-29T01:37:19;2.13;;;1.93;;
26780;SDS011;14366;49.184;8.054;2023-07-29T01:42:54;2.40;;;2.10;;
26780;SDS011;14366;49.184;8.054;2023-07-29T01:48:29;4.50;;;2.10;;
26780;SDS011;14366;49.184;8.054;2023-07-29T01:53:50;3.15;;;2.10;;
26780;SDS011;14366;49.184;8.054;2023-07-29T01:59:11;2.47;;;1.83;;
26780;SDS011;14366;49.184;8.054;2023-07-29T02:04:43;4.60;;;2.30;;
26780;SDS011;14366;49.184;8.054;2023-07-29T02:10:18;4.15;;;1.95;;
26780;SDS011;14366;49.184;8.054;2023-07-29T02:15:39;2.47;;;2.20;;
26780;SDS011;14366;49.184;8.054;2023-07-29T02:21:14;3.87;;;2.37;;
26780;SDS011;14366;49.184;8.054;2023-07-29T02:26:35;3.53;;;2.30;;
26780;SDS011;14366;49.184;8.054;2023-07-29T02:37:02;2.20;;;2.00;;
26780;SDS011;14366;49.184;8.054;2023-07-29T02:47:38;2.10;;;1.90;;
26780;SDS011;14366;49.184;8.054;2023-07-29T02:53:15;3.30;;;2.10;;
26780;SDS011;14366;49.184;8.054;2023-07-29T02:58:49;2.75;;;1.90;;
26780;SDS011;14366;49.184;8.054;2023-07-29T03:09:30;3.10;;;1.80;;
26780;SDS011;14366;49.184;8.054;2023-07-29T03:15:05;3.55;;;2.20;;
26780;SDS011;14366;49.184;8.054;2023-07-29T03:20:40;3.95;;;2.10;;
26780;SDS011;14366;49.184;8.054;2023-07-29T03:26:14;3.25;;;2.50;;
26780;SDS011;14366;49.184;8.054;2023-07-29T03:31:48;2.40;;;2.05;;
26780;SDS011;14366;49.184;8.054;2023-07-29T03:37:23;3.93;;;2.00;;
26780;SDS011;14366;49.184;8.054;2023-07-29T03:42:45;2.10;;;1.90;;
26780;SDS011;14366;49.184;8.054;2023-07-29T03:48:19;3.57;;;2.30;;
26780;SDS011;14366;49.184;8.054;2023-07-29T03:53:36;2.43;;;1.93;;
26780;SDS011;14366;49.184;8.054;2023-07-29T03:58:57;3.50;;;2.03;;
26780;SDS011;14366;49.184;8.054;2023-07-29T04:04:29;2.90;;;2.27;;
26780;SDS011;14366;49.184;8.054;2023-07-29T04:09:46;2.73;;;2.30;;
26780;SDS011;14366;49.184;8.054;2023-07-29T04:15:05;4.30;;;2.60;;
26780;SDS011;14366;49.184;8.054;2023-07-29T04:20:40;3.47;;;2.50;;
26780;SDS011;14366;49.184;8.054;2023-07-29T04:26:15;4.73;;;2.60;;
26780;SDS011;14366;49.184;8.054;2023-07-29T04:31:37;3.00;;;2.70;;
26780;SDS011;14366;49.184;8.054;2023-07-29T04:37:10;4.55;;;2.65;;
26780;SDS011;14366;49.184;8.054;2023-07-29T04:42:45;5.70;;;2.85;;
26780;SDS011;14366;49.184;8.054;2023-07-29T04:48:18;3.80;;;2.55;;
26780;SDS011;14366;49.184;8.054;2023-07-29T04:58:54;3.80;;;2.90;;
26780;SDS011;14366;49.184;8.054;2023-07-29T05:09:34;4.50;;;3.05;;
26780;SDS011;14366;49.184;8.054;2023-07-29T05:15:09;4.60;;;2.83;;
26780;SDS011;14366;49.184;8.054;2023-07-29T05:20:42;4.70;;;3.35;;
26780;SDS011;14366;49.184;8.054;2023-07-29T05:26:18;4.70;;;3.53;;
26780;SDS011;14366;49.184;8.054;2023-07-29T05:31:53;5.00;;;3.93;;
26780;SDS011;14366;49.184;8.054;2023-07-29T05:37:10;4.43;;;3.23;;
26780;SDS011;14366;49.184;8.054;2023-07-29T05:42:31;3.90;;;3.10;;
26780;SDS011;14366;49.184;8.054;2023-07-29T05:48:06;5.47;;;2.90;;
26780;SDS011;14366;49.184;8.054;2023-07-29T05:53:41;4.00;;;3.10;;
26780;SDS011;14366;49.184;8.054;2023-07-29T05:59:14;3.60;;;3.00;;
26780;SDS011;14366;49.184;8.054;2023-07-29T06:04:44;2.73;;;2.47;;
26780;SDS011;14366;49.184;8.054;2023-07-29T06:10:16;4.20;;;2.40;;
26780;SDS011;14366;49.184;8.054;2023-07-29T06:15:52;5.00;;;2.13;;
26780;SDS011;14366;49.184;8.054;2023-07-29T06:21:27;2.57;;;1.83;;
26780;SDS011;14366;49.184;8.054;2023-07-29T06:26:59;1.70;;;1.60;;
26780;SDS011;14366;49.184;8.054;2023-07-29T06:32:17;1.70;;;1.60;;
26780;SDS011;14366;49.184;8.054;2023-07-29T06:37:49;2.80;;;1.60;;
26780;SDS011;14366;49.184;8.054;2023-07-29T06:43:24;4.37;;;2.10;;
26780;SDS011;14366;49.184;8.054;2023-07-29T06:48:57;2.33;;;1.90;;
26780;SDS011;14366;49.184;8.054;2023-07-29T06:54:32;3.00;;;1.80;;
26780;SDS011;14366;49.184;8.054;2023-07-29T07:00:07;2.70;;;1.90;;
26780;SDS011;14366;49.184;8.054;2023-07-29T07:05:40;3.37;;;2.05;;
26780;SDS011;14366;49.184;8.054;2023-07-29T07:11:15;2.37;;;1.80;;
26780;SDS011;14366;49.184;8.054;2023-07-29T07:16:35;2.55;;;1.87;;
26780;SDS011;14366;49.184;8.054;2023-07-29T07:27:01;2.30;;;2.10;;
26780;SDS011;14366;49.184;8.054;2023-07-29T07:32:33;1.80;;;1.67;;
26780;SDS011;14366;49.184;8.054;2023-07-29T07:37:50;3.90;;;1.92;;
26780;SDS011;14366;49.184;8.054;2023-07-29T07:43:09;2.72;;;1.90;;
26780;SDS011;14366;49.184;8.054;2023-07-29T07:48:41;2.28;;;1.70;;
26780;SDS011;14366;49.184;8.054;2023-07-29T07:59:21;3.10;;;1.85;;
26780;SDS011;14366;49.184;8.054;2023-07-29T08:09:55;1.83;;;1.60;;
26780;SDS011;14366;49.184;8.054;2023-07-29T08:15:32;1.95;;;1.75;;
26780;SDS011;14366;49.184;8.054;2023-07-29T08:26:08;1.77;;;1.62;;
26780;SDS011;14366;49.184;8.054;2023-07-29T08:36:32;7.40;;;4.45;;
26780;SDS011;14366;49.184;8.054;2023-07-29T08:47:06;5.60;;;2.22;;
26780;SDS011;14366;49.184;8.054;2023-07-29T08:52:27;3.25;;;2.10;;
26780;SDS011;14366;49.184;8.054;2023-07-29T08:58:02;3.83;;;1.85;;
26780;SDS011;14366;49.184;8.054;2023-07-29T09:03:34;3.10;;;1.77;;
26780;SDS011;14366;49.184;8.054;2023-07-29T09:09:11;2.22;;;1.70;;
26780;SDS011;14366;49.184;8.054;2023-07-29T09:14:43;4.90;;;1.90;;
26780;SDS011;14366;49.184;8.054;2023-07-29T09:20:22;2.47;;;1.58;;
26780;SDS011;14366;49.184;8.054;2023-07-29T09:26:02;4.35;;;1.95;;
26780;SDS011;14366;49.184;8.054;2023-07-29T09:31:36;2.90;;;1.80;;
26780;SDS011;14366;49.184;8.054;2023-07-29T09:36:56;2.05;;;1.55;;
26780;SDS011;14366;49.184;8.054;2023-07-29T09:42:33;2.00;;;1.40;;
26780;SDS011;14366;49.184;8.054;2023-07-29T09:48:04;2.80;;;1.85;;
26780;SDS011;14366;49.184;8.054;2023-07-29T09:53:56;3.20;;;1.80;;
26780;SDS011;14366;49.184;8.054;2023-07-29T09:59:34;1.80;;;1.65;;
26780;SDS011;14366;49.184;8.054;2023-07-29T10:05:09;2.75;;;1.80;;
26780;SDS011;14366;49.184;8.054;2023-07-29T10:10:41;2.92;;;1.62;;
26780;SDS011;14366;49.184;8.054;2023-07-29T10:16:18;2.03;;;1.80;;
26780;SDS011;14366;49.184;8.054;2023-07-29T10:21:53;3.80;;;1.70;;
26780;SDS011;14366;49.184;8.054;2023-07-29T10:27:28;1.85;;;1.60;;
26780;SDS011;14366;49.184;8.054;2023-07-29T10:33:05;2.55;;;1.70;;
26780;SDS011;14366;49.184;8.054;2023-07-29T10:38:40;2.05;;;1.80;;
26780;SDS011;14366;49.184;8.054;2023-07-29T10:50:25;2.87;;;1.77;;
26780;SDS011;14366;49.184;8.054;2023-07-29T10:55:56;2.74;;;1.96;;
26780;SDS011;14366;49.184;8.054;2023-07-29T11:01:29;5.37;;;2.00;;
26780;SDS011;14366;49.184;8.054;2023-07-29T11:07:21;2.20;;;1.75;;
26780;SDS011;14366;49.184;8.054;2023-07-29T11:17:57;3.10;;;1.80;;
26780;SDS011;14366;49.184;8.054;2023-07-29T11:23:34;2.10;;;1.90;;
26780;SDS011;14366;49.184;8.054;2023-07-29T11:29:09;4.24;;;1.88;;
26780;SDS011;14366;49.184;8.054;2023-07-29T11:34:44;1.85;;;1.70;;
26780;SDS011;14366;49.184;8.054;2023-07-29T11:40:17;2.05;;;1.75;;
26780;SDS011;14366;49.184;8.054;2023-07-29T11:45:52;2.95;;;1.60;;
26780;SDS011;14366;49.184;8.054;2023-07-29T11:51:27;1.98;;;1.73;;
26780;SDS011;14366;49.184;8.054;2023-07-29T11:57:03;1.70;;;1.60;;
26780;SDS011;14366;49.184;8.054;2023-07-29T12:02:39;3.60;;;2.12;;
26780;SDS011;14366;49.184;8.054;2023-07-29T12:08:14;1.83;;;1.62;;
26780;SDS011;14366;49.184;8.054;2023-07-29T12:13:50;1.90;;;1.70;;
26780;SDS011;14366;49.184;8.054;2023-07-29T12:19:23;1.50;;;1.40;;
26780;SDS011;14366;49.184;8.054;2023-07-29T12:24:41;2.00;;;1.60;;
26780;SDS011;14366;49.184;8.054;2023-07-29T12:30:17;4.90;;;1.60;;
26780;SDS011;14366;49.184;8.054;2023-07-29T12:35:52;2.28;;;1.70;;
26780;SDS011;14366;49.184;8.054;2023-07-29T12:41:27;3.05;;;1.92;;
26780;SDS011;14366;49.184;8.054;2023-07-29T12:46:48;2.08;;;1.70;;
26780;SDS011;14366;49.184;8.054;2023-07-29T12:52:23;1.70;;;1.50;;
26780;SDS011;14366;49.184;8.054;2023-07-29T12:57:43;1.85;;;1.55;;
26780;SDS011;14366;49.184;8.054;2023-07-29T13:03:04;2.25;;;1.70;;
26780;SDS011;14366;49.184;8.054;2023-07-29T13:08:39;1.95;;;1.70;;
26780;SDS011;14366;49.184;8.054;2023-07-29T13:14:00;1.87;;;1.30;;
26780;SDS011;14366;49.184;8.054;2023-07-29T13:19:36;2.28;;;1.73;;
26780;SDS011;14366;49.184;8.054;2023-07-29T13:25:11;1.58;;;1.48;;
26780;SDS011;14366;49.184;8.054;2023-07-29T13:30:43;2.10;;;1.88;;
26780;SDS011;14366;49.184;8.054;2023-07-29T13:41:06;2.42;;;1.80;;
26780;SDS011;14366;49.184;8.054;2023-07-29T13:51:42;3.10;;;1.73;;
26780;SDS011;14366;49.184;8.054;2023-07-29T14:02:05;2.36;;;1.68;;
26780;SDS011;14366;49.184;8.054;2023-07-29T14:12:41;2.12;;;1.68;;
26780;SDS011;14366;49.184;8.054;2023-07-29T14:17:59;4.32;;;1.70;;
26780;SDS011;14366;49.184;8.054;2023-07-29T14:28:35;2.22;;;1.80;;
26780;SDS011;14366;49.184;8.054;2023-07-29T14:39:15;3.55;;;1.83;;
26780;SDS011;14366;49.184;8.054;2023-07-29T14:49:51;2.20;;;1.80;;
26780;SDS011;14366;49.184;8.054;2023-07-29T15:00:28;2.92;;;1.82;;
26780;SDS011;14366;49.184;8.054;2023-07-29T15:11:07;2.47;;;1.70;;
26780;SDS011;14366;49.184;8.054;2023-07-29T15:16:28;2.78;;;2.05;;
26780;SDS011;14366;49.184;8.054;2023-07-29T15:27:04;2.45;;;1.95;;
26780;SDS011;14366;49.184;8.054;2023-07-29T15:37:41;2.85;;;1.75;;
26780;SDS011;14366;49.184;8.054;2023-07-29T15:48:16;3.42;;;1.95;;
26780;SDS011;14366;49.184;8.054;2023-07-29T15:58:54;4.40;;;1.95;;
26780;SDS011;14366;49.184;8.054;2023-07-29T16:09:29;2.80;;;1.80;;
26780;SDS011;14366;49.184;8.054;2023-07-29T16:15:03;4.47;;;2.20;;
26780;SDS011;14366;49.184;8.054;2023-07-29T16:20:35;4.22;;;2.08;;
26780;SDS011;14366;49.184;8.054;2023-07-29T16:25:55;2.80;;;2.17;;
26780;SDS011;14366;49.184;8.054;2023-07-29T16:31:32;3.12;;;2.00;;
26780;SDS011;14366;49.184;8.054;2023-07-29T16:42:07;5.37;;;2.30;;
26780;SDS011;14366;49.184;8.054;2023-07-29T16:52:45;2.80;;;2.17;;
26780;SDS011;14366;49.184;8.054;2023-07-29T16:58:19;3.35;;;2.00;;
26780;SDS011;14366;49.184;8.054;2023-07-29T17:03:40;2.83;;;2.20;;
26780;SDS011;14366;49.184;8.054;2023-07-29T17:09:17;2.55;;;2.00;;
26780;SDS011;14366;49.184;8.054;2023-07-29T17:14:51;3.60;;;2.17;;
26780;SDS011;14366;49.184;8.054;2023-07-29T17:20:11;2.67;;;1.87;;
26780;SDS011;14366;49.184;8.054;2023-07-29T17:25:33;2.70;;;1.90;;
26780;SDS011;14366;49.184;8.054;2023-07-29T17:31:05;2.65;;;1.90;;
26780;SDS011;14366;49.184;8.054;2023-07-29T17:36:25;2.00;;;1.80;;
26780;SDS011;14366;49.184;8.054;2023-07-29T17:42:01;3.15;;;2.00;;
26780;SDS011;14366;49.184;8.054;2023-07-29T17:47:34;3.12;;;1.95;;
26780;SDS011;14366;49.184;8.054;2023-07-29T17:53:09;2.90;;;2.00;;
26780;SDS011;14366;49.184;8.054;2023-07-29T17:58:45;4.20;;;2.17;;
26780;SDS011;14366;49.184;8.054;2023-07-29T18:04:17;3.03;;;2.17;;
26780;SDS011;14366;49.184;8.054;2023-07-29T18:09:37;4.10;;;1.87;;
26780;SDS011;14366;49.184;8.054;2023-07-29T18:15:10;4.25;;;2.10;;
26780;SDS011;14366;49.184;8.054;2023-07-29T18:20:40;2.83;;;2.50;;
26780;SDS011;14366;49.184;8.054;2023-07-29T18:26:12;2.20;;;2.00;;
26780;SDS011;14366;49.184;8.054;2023-07-29T18:36:34;2.30;;;1.90;;
26780;SDS011;14366;49.184;8.054;2023-07-29T18:47:08;3.72;;;2.12;;
26780;SDS011;14366;49.184;8.054;2023-07-29T18:52:30;2.50;;;2.20;;
26780;SDS011;14366;49.184;8.054;2023-07-29T18:58:03;2.90;;;2.20;;
26780;SDS011;14366;49.184;8.054;2023-07-29T19:03:38;3.46;;;2.10;;
26780;SDS011;14366;49.184;8.054;2023-07-29T19:09:14;3.62;;;2.42;;
26780;SDS011;14366;49.184;8.054;2023-07-29T19:14:49;2.80;;;2.58;;
26780;SDS011;14366;49.184;8.054;2023-07-29T19:20:10;5.30;;;2.40;;
26780;SDS011;14366;49.184;8.054;2023-07-29T19:25:32;3.75;;;2.20;;
26780;SDS011;14366;49.184;8.054;2023-07-29T19:31:07;2.93;;;2.50;;
26780;SDS011;14366;49.184;8.054;2023-07-29T19:36:42;3.30;;;2.30;;
26780;SDS011;14366;49.184;8.054;2023-07-29T19:42:18;2.55;;;2.30;;
26780;SDS011;14366;49.184;8.054;2023-07-29T19:47:53;2.50;;;2.08;;
26780;SDS011;14366;49.184;8.054;2023-07-29T19:53:28;2.87;;;2.45;;
26780;SDS011;14366;49.184;8.054;2023-07-29T20:04:08;3.83;;;3.50;;
26780;SDS011;14366;49.184;8.054;2023-07-29T20:14:44;2.83;;;2.53;;
26780;SDS011;14366;49.184;8.054;2023-07-29T20:20:21;3.50;;;2.60;;
26780;SDS011;14366;49.184;8.054;2023-07-29T20:25:56;5.25;;;2.90;;
26780;SDS011;14366;49.184;8.054;2023-07-29T20:31:16;5.05;;;2.75;;
26780;SDS011;14366;49.184;8.054;2023-07-29T20:36:37;3.75;;;2.80;;
26780;SDS011;14366;49.184;8.054;2023-07-29T20:42:12;3.12;;;2.65;;
26780;SDS011;14366;49.184;8.054;2023-07-29T20:47:32;3.12;;;2.50;;
26780;SDS011;14366;49.184;8.054;2023-07-29T20:53:09;3.03;;;2.62;;
26780;SDS011;14366;49.184;8.054;2023-07-29T20:58:43;3.65;;;2.72;;
26780;SDS011;14366;49.184;8.054;2023-07-29T21:04:18;3.87;;;2.37;;
26780;SDS011;14366;49.184;8.054;2023-07-29T21:09:39;4.55;;;2.85;;
26780;SDS011;14366;49.184;8.054;2023-07-29T21:15:14;3.66;;;2.70;;
26780;SDS011;14366;49.184;8.054;2023-07-29T21:20:34;5.05;;;3.30;;
26780;SDS011;14366;49.184;8.054;2023-07-29T21:25:55;6.50;;;3.47;;
26780;SDS011;14366;49.184;8.054;2023-07-29T21:31:30;6.15;;;3.25;;
26780;SDS011;14366;49.184;8.054;2023-07-29T21:37:05;3.65;;;2.20;;
26780;SDS011;14366;49.184;8.054;2023-07-29T21:42:42;1.94;;;1.52;;
26780;SDS011;14366;49.184;8.054;2023-07-29T21:48:16;3.55;;;1.40;;
26780;SDS011;14366;49.184;8.054;2023-07-29T21:53:48;2.83;;;1.60;;
26780;SDS011;14366;49.184;8.054;2023-07-29T22:04:26;2.35;;;1.77;;
26780;SDS011;14366;49.184;8.054;2023-07-29T22:15:02;4.03;;;1.50;;
26780;SDS011;14366;49.184;8.054;2023-07-29T22:25:44;1.52;;;1.25;;
26780;SDS011;14366;49.184;8.054;2023-07-29T22:36:19;1.48;;;1.28;;
26780;SDS011;14366;49.184;8.054;2023-07-29T22:41:53;2.35;;;1.60;;
26780;SDS011;14366;49.184;8.054;2023-07-29T22:47:27;2.42;;;1.60;;
26780;SDS011;14366;49.184;8.054;2023-07-29T22:53:02;4.60;;;1.50;;
26780;SDS011;14366;49.184;8.054;2023-07-29T22:58:21;3.78;;;1.92;;
26780;SDS011;14366;49.184;8.054;2023-07-29T23:03:52;2.62;;;1.80;;
26780;SDS011;14366;49.184;8.054;2023-07-29T23:09:12;2.00;;;1.67;;
26780;SDS011;14366;49.184;8.054;2023-07-29T23:14:34;1.90;;;1.70;;
26780;SDS011;14366;49.184;8.054;2023-07-29T23:20:09;2.47;;;1.77;;
26780;SDS011;14366;49.184;8.054;2023-07-29T23:25:41;4.15;;;2.00;;
26780;SDS011;14366;49.184;8.054;2023-07-29T23:31:03;2.73;;;2.07;;
26780;SDS011;14366;49.184;8.054;2023-07-29T23:36:34;2.12;;;1.73;;
26780;SDS011;14366;49.184;8.054;2023-07-29T23:41:51;3.92;;;2.35;;
26780;SDS011;14366;49.184;8.054;2023-07-29T23:47:13;2.10;;;1.65;;
26780;SDS011;14366;49.184;8.054;2023-07-29T23:57:52;2.00;;;1.70;;
